createdAt,value
2022-11-15T00:02:17.992Z,49910.22
2022-11-15T00:05:04.502Z,49688.22
2022-11-15T00:07:55.712Z,49708.22
2022-11-15T00:10:42.549Z,49530.22
2022-11-15T00:13:29.317Z,49484.22
2022-11-15T00:16:15.810Z,49892.22
2022-11-15T00:19:01.927Z,49856.22
2022-11-15T00:21:47.707Z,49776.22
2022-11-15T00:24:37.180Z,49340.22
2022-11-15T00:27:22.844Z,48948.25
2022-11-15T00:30:09.385Z,48732.31
2022-11-15T00:32:56.143Z,48874.28
2022-11-15T00:35:43.372Z,49072.25
2022-11-15T00:38:36.636Z,49010.25
2022-11-15T00:41:23.693Z,48726.31
2022-11-15T00:44:12.076Z,48926.25
2022-11-15T00:47:00.581Z,48688.31
2022-11-15T00:49:46.670Z,48714.31
2022-11-15T00:52:32.620Z,48636.34
2022-11-15T00:55:22.026Z,48340.44
2022-11-15T00:58:08.188Z,48346.41
2022-11-15T01:00:54.729Z,48172.50
2022-11-15T01:03:44.459Z,47964.56
2022-11-15T01:06:33.498Z,47644.75
2022-11-15T01:09:19.262Z,47666.72
2022-11-15T01:12:07.900Z,47516.81
2022-11-15T01:14:55.174Z,47430.88
2022-11-15T01:17:41.226Z,47017.16
2022-11-15T01:20:27.385Z,46591.50
2022-11-15T01:23:13.228Z,46213.84
2022-11-15T01:26:05.460Z,46301.75
2022-11-15T01:28:51.580Z,46743.38
2022-11-15T01:31:37.767Z,46657.44
2022-11-15T01:34:24.198Z,46573.50
2022-11-15T01:37:10.137Z,46503.56
2022-11-15T01:39:56.689Z,46237.81
2022-11-15T01:42:42.659Z,46103.97
2022-11-15T01:46:14.475Z,45548.56
2022-11-15T01:49:08.079Z,46149.91
2022-11-15T01:51:58.563Z,46014.06
2022-11-15T01:54:45.415Z,45336.84
2022-11-15T01:57:32.240Z,44839.50
2022-11-15T02:00:24.170Z,44507.97
2022-11-15T02:03:14.175Z,44252.34
2022-11-15T02:06:12.887Z,44152.53
2022-11-15T02:08:59.812Z,44068.66
2022-11-15T02:11:50.491Z,43996.78
2022-11-15T02:14:42.408Z,44054.69
2022-11-15T02:17:49.958Z,44174.47
2022-11-15T02:20:46.880Z,44034.72
2022-11-15T02:24:05.421Z,43829.06
2022-11-15T02:27:14.169Z,43821.06
2022-11-15T02:30:20.673Z,43715.25
2022-11-15T02:33:50.180Z,43379.84
2022-11-15T02:37:16.894Z,43447.72
2022-11-15T02:40:14.564Z,43551.53
2022-11-15T02:47:07.115Z,43545.53
2022-11-15T02:49:58.839Z,43599.44
2022-11-15T02:53:01.751Z,43278.03
2022-11-15T02:56:37.776Z,43164.25
2022-11-15T03:00:22.403Z,43381.84
2022-11-15T03:03:43.728Z,43741.19
2022-11-15T03:07:06.498Z,43423.75
2022-11-15T03:10:14.893Z,43204.16
2022-11-15T03:13:25.832Z,43110.34
2022-11-15T03:16:37.704Z,42850.84
2022-11-15T03:19:29.567Z,42916.72
2022-11-15T03:22:28.964Z,42779.00
2022-11-15T03:25:39.880Z,42661.22
2022-11-15T03:28:40.525Z,42830.91
2022-11-15T03:31:50.997Z,42912.72
2022-11-15T03:35:13.127Z,42779.00
2022-11-15T03:38:17.814Z,42777.00
2022-11-15T03:41:16.935Z,42788.97
2022-11-15T03:44:15.040Z,42769.03
2022-11-15T03:47:18.205Z,42623.31
2022-11-15T03:50:18.114Z,42463.66
2022-11-15T03:53:09.585Z,42339.91
2022-11-15T03:56:19.171Z,42198.22
2022-11-15T03:59:09.696Z,42305.97
2022-11-15T04:02:00.970Z,42174.25
2022-11-15T04:04:48.159Z,41972.72
2022-11-15T04:07:41.342Z,41898.88
2022-11-15T04:10:29.154Z,41701.34
2022-11-15T04:13:16.248Z,41601.56
2022-11-15T04:16:23.057Z,41631.50
2022-11-15T04:19:29.687Z,41687.38
2022-11-15T04:22:35.396Z,41854.97
2022-11-15T04:25:32.263Z,41958.75
2022-11-15T04:28:25.034Z,42158.31
2022-11-15T04:31:14.030Z,41679.38
2022-11-15T04:34:08.077Z,41208.53
2022-11-15T04:37:16.074Z,40909.28
2022-11-15T04:40:08.502Z,40594.09
2022-11-15T04:43:03.630Z,40388.66
2022-11-15T04:45:50.221Z,40711.78
2022-11-15T04:48:38.021Z,40703.81
2022-11-15T04:51:43.996Z,40773.63
2022-11-15T04:55:12.904Z,41214.50
2022-11-15T04:58:37.469Z,41906.88
2022-11-15T05:01:31.239Z,42727.09
2022-11-15T05:04:26.264Z,43469.69
2022-11-15T05:07:18.335Z,44340.22
2022-11-15T05:10:08.634Z,44891.41
2022-11-15T05:13:01.020Z,45518.59
2022-11-15T05:16:10.456Z,46333.75
2022-11-15T05:18:56.879Z,47141.06
2022-11-15T05:21:44.894Z,48060.53
2022-11-15T05:24:32.221Z,48834.28
2022-11-15T05:27:22.537Z,50092.25
2022-11-15T05:30:14.469Z,50962.50
2022-11-15T05:33:01.452Z,51524.78
2022-11-15T05:35:55.946Z,53310.31
2022-11-15T05:38:44.876Z,54595.97
2022-11-15T05:41:44.390Z,55108.78
2022-11-15T05:44:32.896Z,55621.66
2022-11-15T05:47:31.762Z,56134.63
2022-11-15T05:50:19.773Z,55621.66
2022-11-15T05:53:07.480Z,55878.13
2022-11-15T05:55:55.366Z,55621.66
2022-11-15T05:58:43.890Z,55621.66
2022-11-15T06:01:38.303Z,55878.13
2022-11-15T06:04:29.925Z,55878.13
2022-11-15T06:07:17.253Z,54339.59
2022-11-15T06:10:06.109Z,54595.97
2022-11-15T06:13:09.182Z,55878.13
2022-11-15T06:16:31.046Z,55878.13
2022-11-15T06:19:17.967Z,56647.66
2022-11-15T06:22:10.634Z,57160.78
2022-11-15T06:24:59.174Z,57417.38
2022-11-15T06:27:53.225Z,57673.97
2022-11-15T06:30:38.953Z,58187.25
2022-11-15T06:33:25.040Z,58443.91
2022-11-15T06:36:18.155Z,58443.91
2022-11-15T06:39:05.346Z,58443.91
2022-11-15T06:41:51.234Z,55108.78
2022-11-15T06:44:39.311Z,48618.34
2022-11-15T06:47:28.740Z,45340.81
2022-11-15T06:50:14.794Z,43483.66
2022-11-15T06:53:06.717Z,43014.53
2022-11-15T06:55:55.485Z,41898.88
2022-11-15T06:58:44.038Z,42296.00
2022-11-15T07:01:33.368Z,42391.78
2022-11-15T07:04:20.120Z,42645.28
2022-11-15T07:07:07.324Z,43014.53
2022-11-15T07:09:54.693Z,44100.59
2022-11-15T07:12:40.728Z,45486.66
2022-11-15T07:15:27.588Z,46735.38
2022-11-15T07:18:25.850Z,49130.22
2022-11-15T07:21:35.592Z,49232.22
2022-11-15T07:24:23.312Z,48572.34
2022-11-15T07:27:23.392Z,46497.59
2022-11-15T07:30:29.178Z,45368.78
2022-11-15T07:33:18.671Z,44436.06
2022-11-15T07:36:51.046Z,43545.53
2022-11-15T07:39:38.039Z,42904.75
2022-11-15T07:42:45.001Z,42258.09
2022-11-15T07:45:36.467Z,41833.03
2022-11-15T07:48:42.968Z,41609.56
2022-11-15T07:51:30.553Z,41322.25
2022-11-15T07:54:18.201Z,41021.00
2022-11-15T07:57:07.554Z,40809.53
2022-11-15T07:59:53.899Z,40637.97
2022-11-15T08:02:42.503Z,40484.38
2022-11-15T08:05:45.229Z,40382.66
2022-11-15T08:08:32.284Z,40151.31
2022-11-15T08:11:18.662Z,40033.63
2022-11-15T08:14:05.151Z,39949.88
2022-11-15T08:16:50.885Z,39814.25
2022-11-15T08:19:37.290Z,39772.38
2022-11-15T08:22:24.082Z,39678.66
2022-11-15T08:29:45.892Z,39688.63
2022-11-15T08:32:36.862Z,39678.66
2022-11-15T08:35:27.795Z,39614.84
2022-11-15T08:38:17.871Z,39594.91
2022-11-15T08:41:07.083Z,39555.03
2022-11-15T08:43:53.336Z,39519.13
2022-11-15T08:46:39.303Z,39527.09
2022-11-15T08:49:35.180Z,39519.13
2022-11-15T08:52:29.800Z,39533.09
2022-11-15T08:55:31.453Z,39443.34
2022-11-15T08:58:30.682Z,39439.38
2022-11-15T09:02:12.978Z,39343.66
2022-11-15T09:06:08.357Z,39443.34
2022-11-15T09:09:26.513Z,39662.69
2022-11-15T09:12:13.477Z,39678.66
2022-11-15T09:14:59.954Z,39734.50
2022-11-15T09:17:45.702Z,39726.50
2022-11-15T09:20:31.893Z,39744.47
2022-11-15T09:23:18.100Z,39764.41
2022-11-15T09:26:06.069Z,39768.41
2022-11-15T09:28:52.358Z,39796.31
2022-11-15T09:31:38.575Z,39734.50
2022-11-15T09:34:24.775Z,39756.44
2022-11-15T09:37:10.698Z,39734.50
2022-11-15T09:39:58.788Z,39724.53
2022-11-15T09:42:57.438Z,39762.41
2022-11-15T09:46:16.691Z,39734.50
2022-11-15T09:49:09.826Z,39712.56
2022-11-15T09:52:08.543Z,39678.66
2022-11-15T09:54:54.222Z,39640.78
2022-11-15T09:57:43.407Z,39604.88
2022-11-15T10:00:46.889Z,39624.81
2022-11-15T10:03:31.666Z,39606.88
2022-11-15T10:06:16.115Z,39606.88
2022-11-15T10:08:59.632Z,39608.88
2022-11-15T10:11:37.192Z,39670.69
2022-11-15T10:14:24.298Z,39658.72
2022-11-15T10:17:25.161Z,39684.63
2022-11-15T10:20:59.030Z,39604.88
2022-11-15T10:23:29.553Z,39686.63
2022-11-15T10:26:05.325Z,39726.50
2022-11-15T10:28:38.038Z,39844.19
2022-11-15T10:31:28.284Z,40053.56
2022-11-15T10:34:25.126Z,40366.72
2022-11-15T10:36:57.795Z,40745.69
2022-11-15T10:39:36.466Z,41856.97
2022-11-15T10:42:42.522Z,43733.22
2022-11-15T10:45:41.329Z,43671.31
2022-11-15T10:48:25.556Z,43435.75
2022-11-15T10:50:54.775Z,43270.03
2022-11-15T10:53:31.619Z,43375.84
2022-11-15T10:56:07.123Z,50184.28
2022-11-15T10:58:44.094Z,59214.00
2022-11-15T11:01:15.102Z,66667.38
2022-11-15T11:03:44.956Z,71044.19
2022-11-15T11:06:18.948Z,73105.81
2022-11-15T11:09:06.901Z,74137.09
2022-11-15T11:11:51.400Z,74137.09
2022-11-15T11:14:38.704Z,73879.22
2022-11-15T11:17:43.374Z,72848.03
2022-11-15T11:20:19.045Z,71817.16
2022-11-15T11:23:18.604Z,70786.59
2022-11-15T11:25:46.012Z,70013.84
2022-11-15T11:28:43.805Z,69241.31
2022-11-15T11:31:54.516Z,68211.50
2022-11-15T11:35:00.640Z,66667.38
2022-11-15T11:37:46.913Z,64609.66
2022-11-15T11:40:31.661Z,63067.16
2022-11-15T11:43:41.129Z,62296.19
2022-11-15T11:46:46.930Z,61525.38
2022-11-15T11:49:52.428Z,59727.50
2022-11-15T11:52:32.725Z,60497.91
2022-11-15T11:55:19.666Z,59727.50
2022-11-15T11:58:06.020Z,60241.09
2022-11-15T12:00:40.927Z,60497.91
2022-11-15T12:03:10.821Z,58700.59
2022-11-15T12:05:45.471Z,57417.38
2022-11-15T12:08:41.230Z,56647.66
2022-11-15T12:11:17.132Z,55365.22
2022-11-15T12:13:54.644Z,52469.47
2022-11-15T12:16:29.385Z,50780.44
2022-11-15T12:19:01.527Z,50052.25
2022-11-15T12:21:52.409Z,49052.25
2022-11-15T12:24:42.637Z,47664.72
2022-11-15T12:27:18.607Z,46949.22
2022-11-15T12:29:55.073Z,46487.59
2022-11-15T12:32:28.439Z,46091.97
2022-11-15T12:34:57.222Z,46507.56
2022-11-15T12:45:27.452Z,44609.81
2022-11-15T12:47:57.371Z,45232.97
2022-11-15T12:50:56.747Z,44669.72
2022-11-15T12:53:24.297Z,44523.94
2022-11-15T12:56:13.136Z,44320.25
2022-11-15T12:58:49.067Z,44354.19
2022-11-15T13:01:51.429Z,44719.66
2022-11-15T13:04:25.655Z,44673.72
2022-11-15T13:06:54.706Z,44671.72
2022-11-15T13:09:37.630Z,44697.69
2022-11-15T13:12:35.383Z,44254.34
2022-11-15T13:15:42.479Z,44082.63
2022-11-15T13:18:35.622Z,43880.97
2022-11-15T13:21:25.265Z,43553.53
2022-11-15T13:23:59.156Z,44186.47
2022-11-15T13:26:27.533Z,45215.00
2022-11-15T13:28:56.965Z,45874.19
2022-11-15T13:31:27.431Z,46599.50
2022-11-15T13:34:13.660Z,47063.13
2022-11-15T13:36:52.409Z,48020.56
2022-11-15T13:39:29.134Z,49018.25
2022-11-15T13:42:04.659Z,49258.22
2022-11-15T13:44:35.058Z,50028.25
2022-11-15T13:47:16.080Z,50884.47
2022-11-15T13:49:43.666Z,51724.91
2022-11-15T13:52:15.760Z,44643.78
2022-11-15T13:54:46.680Z,43882.97
2022-11-15T13:57:26.334Z,46016.06
2022-11-15T14:00:01.928Z,46937.22
2022-11-15T14:02:41.460Z,47071.13
2022-11-15T14:05:43.926Z,47632.75
2022-11-15T14:08:24.895Z,48634.34
2022-11-15T14:11:31.606Z,49308.22
2022-11-15T14:14:49.256Z,50216.28
2022-11-15T14:22:05.963Z,53570.59
2022-11-15T14:24:51.030Z,55621.66
2022-11-15T14:27:32.306Z,56647.66
2022-11-15T14:30:11.560Z,57930.59
2022-11-15T14:32:49.004Z,59214.00
2022-11-15T14:35:29.908Z,59984.28
2022-11-15T14:38:08.714Z,60754.75
2022-11-15T14:40:36.110Z,61525.38
2022-11-15T14:43:03.769Z,62296.19
2022-11-15T14:45:37.446Z,63324.19
2022-11-15T14:48:08.714Z,63838.31
2022-11-15T14:50:38.324Z,63838.31
2022-11-15T14:53:13.054Z,64352.53
2022-11-15T14:55:48.480Z,64866.81
2022-11-15T14:58:21.076Z,65381.16
2022-11-15T15:01:24.382Z,66152.84
2022-11-15T15:03:53.244Z,66924.69
2022-11-15T15:06:20.826Z,66667.38
2022-11-15T15:08:53.776Z,66924.69
2022-11-15T15:11:31.482Z,67954.09
2022-11-15T15:14:02.030Z,68468.91
2022-11-15T15:16:32.241Z,67954.09
2022-11-15T15:19:07.191Z,67954.09
2022-11-15T15:21:41.364Z,66410.09
2022-11-15T15:24:15.981Z,65381.16
2022-11-15T15:26:47.344Z,65895.59
2022-11-15T15:29:14.925Z,66152.84
2022-11-15T15:31:43.548Z,66667.38
2022-11-15T15:34:16.690Z,67182.00
2022-11-15T15:36:44.442Z,67439.34
2022-11-15T15:39:13.162Z,67439.34
2022-11-15T15:41:46.506Z,67182.00
2022-11-15T15:44:13.901Z,67182.00
2022-11-15T15:46:41.526Z,67439.34
2022-11-15T15:49:12.473Z,67696.72
2022-11-15T15:51:40.180Z,67696.72
2022-11-15T15:54:08.960Z,67439.34
2022-11-15T15:56:38.519Z,67439.34
2022-11-15T15:59:09.906Z,67439.34
2022-11-15T16:01:44.481Z,66924.69
2022-11-15T16:04:12.859Z,66924.69
2022-11-15T16:06:46.527Z,67182.00
2022-11-15T16:09:17.143Z,67439.34
2022-11-15T16:11:47.307Z,67439.34
2022-11-15T16:14:23.251Z,67182.00
2022-11-15T16:16:52.563Z,67182.00
2022-11-15T16:19:25.500Z,67439.34
2022-11-15T16:21:56.536Z,67182.00
2022-11-15T16:24:31.571Z,67182.00
2022-11-15T16:27:18.553Z,67696.72
2022-11-15T16:29:47.233Z,67439.34
2022-11-15T16:32:17.414Z,67182.00
2022-11-15T16:34:48.797Z,66924.69
2022-11-15T16:37:24.534Z,66410.09
2022-11-15T16:39:53.964Z,65895.59
2022-11-15T16:42:24.728Z,64866.81
2022-11-15T16:45:31.001Z,65638.38
2022-11-15T16:47:58.899Z,65381.16
2022-11-15T16:50:51.935Z,64609.66
2022-11-15T16:53:19.282Z,64609.66
2022-11-15T16:55:46.953Z,64095.41
2022-11-15T16:58:16.954Z,64352.53
2022-11-15T17:00:45.486Z,64095.41
2022-11-15T17:03:13.188Z,63581.25
2022-11-15T17:05:40.516Z,63324.19
2022-11-15T17:08:22.398Z,63581.25
2022-11-15T17:10:50.033Z,63581.25
2022-11-15T17:13:19.727Z,63581.25
2022-11-15T17:15:47.289Z,63838.31
2022-11-15T17:18:15.735Z,64095.41
2022-11-15T17:20:43.450Z,64352.53
2022-11-15T17:23:17.544Z,63838.31
2022-11-15T17:25:45.116Z,63838.31
2022-11-15T17:28:12.592Z,63838.31
2022-11-15T17:30:46.528Z,64095.41
2022-11-15T17:33:27.937Z,63838.31
2022-11-15T17:36:00.039Z,63838.31
2022-11-15T17:38:28.303Z,63838.31
2022-11-15T17:41:12.109Z,65381.16
2022-11-15T17:43:42.213Z,67696.72
2022-11-15T17:46:17.596Z,69241.31
2022-11-15T17:48:50.916Z,70528.97
2022-11-15T17:51:18.662Z,72332.56
2022-11-15T17:53:48.621Z,74394.94
2022-11-15T17:56:18.926Z,76458.59
2022-11-15T17:58:53.368Z,78007.13
2022-11-15T18:01:33.883Z,78265.28
2022-11-15T18:04:04.056Z,78781.66
2022-11-15T18:06:33.843Z,77490.88
2022-11-15T18:09:02.232Z,77490.88
2022-11-15T18:11:39.385Z,77748.97
2022-11-15T18:14:14.520Z,77490.88
2022-11-15T18:16:42.425Z,77490.88
2022-11-15T18:19:13.895Z,78265.28
2022-11-15T18:22:03.454Z,79298.09
2022-11-15T18:24:35.357Z,79556.34
2022-11-15T18:27:12.033Z,79556.34
2022-11-15T18:29:50.376Z,82139.97
2022-11-15T18:32:17.938Z,84466.88
2022-11-15T18:34:45.546Z,85760.28
2022-11-15T18:37:13.188Z,85760.28
2022-11-15T18:39:41.172Z,86019.03
2022-11-15T18:42:16.109Z,86019.03
2022-11-15T18:44:43.650Z,85760.28
2022-11-15T18:47:19.230Z,84984.19
2022-11-15T18:49:46.895Z,84725.53
2022-11-15T18:52:14.459Z,84466.88
2022-11-15T18:54:53.516Z,84208.25
2022-11-15T18:57:27.478Z,83949.66
2022-11-15T19:00:00.905Z,83432.50
2022-11-15T19:02:28.691Z,82915.44
2022-11-15T19:04:57.620Z,82656.94
2022-11-15T19:07:26.534Z,82398.44
2022-11-15T19:09:56.439Z,82139.97
2022-11-15T19:12:27.050Z,81881.53
2022-11-15T19:14:55.084Z,81881.53
2022-11-15T19:17:22.487Z,81623.09
2022-11-15T19:19:52.252Z,81364.69
2022-11-15T19:22:22.902Z,81106.28
2022-11-15T19:24:52.462Z,81106.28
2022-11-15T19:27:22.400Z,81106.28
2022-11-15T19:29:51.935Z,81106.28
2022-11-15T19:32:19.257Z,81106.28
2022-11-15T19:34:46.718Z,80331.25
2022-11-15T19:37:14.257Z,80589.56
2022-11-15T19:39:42.077Z,80589.56
2022-11-15T19:42:12.124Z,80331.25
2022-11-15T19:44:39.665Z,80331.25
2022-11-15T19:47:09.320Z,80331.25
2022-11-15T19:49:44.540Z,80331.25
2022-11-15T19:52:15.302Z,80072.94
2022-11-15T19:54:46.569Z,79814.63
2022-11-15T19:57:17.710Z,79556.34
2022-11-15T19:59:46.845Z,79556.34
2022-11-15T20:02:14.174Z,79556.34
2022-11-15T20:04:41.662Z,79298.09
2022-11-15T20:07:14.540Z,78781.66
2022-11-15T20:09:42.253Z,78781.66
2022-11-15T20:12:16.821Z,78523.44
2022-11-15T20:14:54.586Z,78265.28
2022-11-15T20:17:26.024Z,77748.97
2022-11-15T20:20:20.416Z,77232.75
2022-11-15T20:22:50.517Z,77748.97
2022-11-15T20:25:23.064Z,77232.75
2022-11-15T20:27:54.045Z,76974.69
2022-11-15T20:30:32.931Z,76716.63
2022-11-15T20:33:09.642Z,76458.59
2022-11-15T20:35:49.957Z,76200.56
2022-11-15T20:38:34.949Z,75942.56
2022-11-15T20:41:03.402Z,76458.59
2022-11-15T20:43:31.950Z,76200.56
2022-11-15T20:46:03.540Z,75942.56
2022-11-15T20:48:36.462Z,75942.56
2022-11-15T20:51:15.907Z,75942.56
2022-11-15T20:54:08.300Z,76200.56
2022-11-15T20:56:50.495Z,75942.56
2022-11-15T20:59:18.257Z,75942.56
2022-11-15T21:01:48.139Z,75942.56
2022-11-15T21:04:16.119Z,75684.56
2022-11-15T21:06:47.708Z,75684.56
2022-11-15T21:09:38.196Z,75684.56
2022-11-15T21:12:12.176Z,75426.59
2022-11-15T21:14:48.980Z,75168.66
2022-11-15T21:17:16.459Z,75168.66
2022-11-15T21:19:44.169Z,74652.84
2022-11-15T21:22:14.060Z,74652.84
2022-11-15T21:24:42.039Z,74652.84
2022-11-15T21:27:09.599Z,74137.09
2022-11-15T21:29:38.994Z,74137.09
2022-11-15T21:32:13.291Z,73879.22
2022-11-15T21:34:43.287Z,73621.41
2022-11-15T21:37:11.132Z,73363.59
2022-11-15T21:39:39.272Z,73621.41
2022-11-15T21:42:07.608Z,73363.59
2022-11-15T21:44:35.210Z,73363.59
2022-11-15T21:47:02.751Z,73105.81
2022-11-15T21:49:31.418Z,73105.81
2022-11-15T21:51:58.884Z,73105.81
2022-11-15T21:54:26.257Z,73105.81
2022-11-15T21:56:57.334Z,73105.81
2022-11-15T21:59:32.340Z,72848.03
2022-11-15T22:02:15.244Z,72332.56
2022-11-15T22:04:42.812Z,72074.84
2022-11-15T22:07:10.131Z,72332.56
2022-11-15T22:09:38.129Z,72332.56
2022-11-15T22:12:05.582Z,72332.56
2022-11-15T22:14:33.018Z,72332.56
2022-11-15T22:17:06.733Z,72074.84
2022-11-15T22:19:47.523Z,71559.47
2022-11-15T22:22:20.060Z,72074.84
2022-11-15T22:24:47.785Z,72332.56
2022-11-15T22:27:15.286Z,72332.56
2022-11-15T22:29:43.400Z,72332.56
2022-11-15T22:32:11.998Z,72074.84
2022-11-15T22:34:39.588Z,71817.16
2022-11-15T22:37:19.737Z,72074.84
2022-11-15T22:39:49.940Z,72332.56
2022-11-15T22:42:23.251Z,72332.56
2022-11-15T22:44:51.510Z,72074.84
2022-11-15T22:47:19.410Z,71817.16
2022-11-15T22:49:46.817Z,71817.16
2022-11-15T22:52:14.509Z,72074.84
2022-11-15T22:54:42.218Z,71817.16
2022-11-15T22:57:09.729Z,72074.84
2022-11-15T22:59:38.589Z,71559.47
2022-11-15T23:02:05.995Z,71301.84
2022-11-15T23:04:33.387Z,71559.47
2022-11-15T23:07:03.156Z,71301.84
2022-11-15T23:09:30.911Z,71301.84
2022-11-15T23:12:16.858Z,71817.16
2022-11-15T23:14:44.537Z,72332.56
2022-11-15T23:17:11.962Z,72074.84
2022-11-15T23:19:40.769Z,72590.28
2022-11-15T23:22:26.785Z,72590.28
2022-11-15T23:24:56.363Z,72848.03
2022-11-15T23:27:23.885Z,72590.28
2022-11-15T23:30:09.911Z,72074.84
2022-11-15T23:32:56.932Z,72074.84
2022-11-15T23:35:24.489Z,72074.84
2022-11-15T23:37:52.195Z,71817.16
2022-11-15T23:40:20.275Z,72074.84
2022-11-15T23:42:47.792Z,72074.84
2022-11-15T23:45:16.066Z,71817.16
2022-11-15T23:47:44.674Z,72074.84
2022-11-15T23:50:12.258Z,71817.16
2022-11-15T23:52:42.280Z,71559.47
2022-11-15T23:55:10.220Z,71559.47
2022-11-15T23:57:38.922Z,71301.84
